Wheatland, Missouri
Current Conditions -  °F | °C
As of 8:15 AM on Thursday 23 Oct 2014 (Local Time) from KGLY Reporting Station
Few Clouds Few Clouds  
Wind Chill: 55°   Ceiling: Unl
Heat Index: 55°   Visibility: 9mi
Dew Point: 50°   Wind: 8mph
Humidity: 82%   Direction: 170°S
Pressure: 30.14"   Gusts: NA
Location:  37.95°N, 93.4°W
Report Text: KGLY 231315Z AUTO 17007KT 9SM FEW040 13/10 A3014 RMK AO2
Loading
Personal Weather Stations






























Interactive Weather Map
Tropical Storm Tracking
New forecast layout! Learn more

10-Day Weather Forecast

Advertisements
Track Severe Weather on mobile